createdAt,value
2022-11-07T00:01:37.000Z,64.75
2022-11-07T00:06:36.944Z,65.77
2022-11-07T00:11:34.539Z,66.55
2022-11-07T00:16:32.510Z,67.32
2022-11-07T00:21:30.059Z,67.68
2022-11-07T00:26:28.275Z,68.07
2022-11-07T00:31:26.105Z,68.35
2022-11-07T00:36:26.191Z,68.45
2022-11-07T00:41:24.198Z,68.43
2022-11-07T00:46:23.817Z,68.39
2022-11-07T00:51:24.857Z,68.56
2022-11-07T00:56:24.897Z,68.89
2022-11-07T01:01:25.793Z,68.65
2022-11-07T01:06:23.728Z,68.65
2022-11-07T01:11:21.215Z,69.12
2022-11-07T01:16:18.487Z,69.26
2022-11-07T01:21:16.866Z,69.51
2022-11-07T01:26:15.274Z,69.49
2022-11-07T01:31:14.489Z,69.46
2022-11-07T01:36:14.591Z,69.09
2022-11-07T01:41:21.522Z,69.17
2022-11-07T01:46:19.564Z,69.10
2022-11-07T01:51:18.181Z,69.05
2022-11-07T01:56:19.288Z,68.72
2022-11-07T02:01:17.587Z,68.60
2022-11-07T02:06:21.299Z,68.44
2022-11-07T02:11:20.879Z,68.67
2022-11-07T02:16:18.303Z,68.10
2022-11-07T02:21:30.881Z,67.58
2022-11-07T02:26:30.228Z,67.10
2022-11-07T02:31:27.748Z,66.72
2022-11-07T02:36:27.065Z,66.63
2022-11-07T02:41:26.347Z,66.40
2022-11-07T02:46:26.130Z,65.76
2022-11-07T02:51:23.783Z,65.56
2022-11-07T02:56:21.942Z,65.65
2022-11-07T03:01:23.331Z,65.88
2022-11-07T03:06:24.744Z,65.88
2022-11-07T03:11:25.108Z,65.86
2022-11-07T03:16:22.434Z,66.12
2022-11-07T03:21:22.973Z,65.78
2022-11-07T03:26:21.172Z,65.93
2022-11-07T03:31:18.315Z,65.78
2022-11-07T03:36:15.658Z,65.80
2022-11-07T03:41:17.051Z,66.02
2022-11-07T03:46:15.108Z,66.21
2022-11-07T03:51:12.946Z,66.39
2022-11-07T03:56:13.194Z,66.94
2022-11-07T04:01:15.566Z,67.15
2022-11-07T04:06:12.917Z,67.37
2022-11-07T04:11:31.310Z,67.96
2022-11-07T04:16:58.687Z,68.45
2022-11-07T04:21:56.942Z,68.91
2022-11-07T04:27:12.439Z,69.08
2022-11-07T04:32:10.737Z,69.24
2022-11-07T04:37:07.835Z,69.79
2022-11-07T04:42:05.236Z,70.19
2022-11-07T04:47:02.369Z,71.14
2022-11-07T04:52:00.629Z,71.72
2022-11-07T04:56:57.861Z,71.94
2022-11-07T05:01:55.723Z,71.94
2022-11-07T05:06:53.050Z,72.37
2022-11-07T05:11:51.158Z,72.53
2022-11-07T05:16:51.192Z,72.33
2022-11-07T05:22:09.283Z,72.47
2022-11-07T05:27:07.769Z,72.47
2022-11-07T05:32:05.700Z,72.34
2022-11-07T05:37:05.083Z,72.15
2022-11-07T05:42:02.930Z,71.90
2022-11-07T05:47:00.948Z,71.88
2022-11-07T05:51:58.382Z,71.72
2022-11-07T05:56:57.611Z,71.30
2022-11-07T06:01:57.994Z,71.14
2022-11-07T06:06:59.198Z,70.82
2022-11-07T06:11:57.087Z,70.89
2022-11-07T06:16:54.260Z,70.87
2022-11-07T06:21:55.740Z,70.73
2022-11-07T06:26:54.619Z,70.38
2022-11-07T06:31:56.277Z,70.41
2022-11-07T06:37:01.562Z,70.21
2022-11-07T06:42:01.163Z,69.58
2022-11-07T06:46:59.041Z,69.43
2022-11-07T06:51:56.649Z,69.39
2022-11-07T06:56:54.106Z,69.30
2022-11-07T07:01:52.232Z,68.96
2022-11-07T07:06:50.126Z,68.64
2022-11-07T07:11:47.799Z,68.12
2022-11-07T07:16:45.314Z,67.48
2022-11-07T07:21:43.314Z,66.94
2022-11-07T07:26:40.794Z,66.80
2022-11-07T07:31:38.247Z,66.57
2022-11-07T07:36:35.619Z,66.29
2022-11-07T07:41:38.988Z,66.17
2022-11-07T07:46:49.904Z,66.07
2022-11-07T07:51:49.558Z,65.98
2022-11-07T07:56:47.521Z,65.55
2022-11-07T08:01:44.826Z,65.60
2022-11-07T08:06:44.842Z,65.38
2022-11-07T08:11:42.128Z,65.32
2022-11-07T08:16:40.233Z,65.07
2022-11-07T08:21:38.103Z,65.32
2022-11-07T08:26:37.786Z,64.74
2022-11-07T08:31:34.993Z,64.39
2022-11-07T08:36:32.918Z,64.34
2022-11-07T08:41:30.125Z,64.25
2022-11-07T08:46:27.709Z,64.43
2022-11-07T08:51:24.980Z,64.69
2022-11-07T08:56:22.805Z,64.05
2022-11-07T09:01:19.801Z,64.12
2022-11-07T09:06:19.443Z,63.91
2022-11-07T09:11:21.416Z,63.99
2022-11-07T09:16:21.302Z,64.04
2022-11-07T09:21:22.715Z,64.27
2022-11-07T09:26:23.521Z,63.98
2022-11-07T09:31:23.701Z,63.64
2022-11-07T09:36:21.792Z,63.57
2022-11-07T09:41:33.034Z,63.10
2022-11-07T09:46:43.682Z,63.01
2022-11-07T09:51:49.763Z,63.15
2022-11-07T09:56:49.341Z,62.65
2022-11-07T10:01:47.303Z,62.35
2022-11-07T10:06:49.451Z,62.29
2022-11-07T10:12:00.519Z,61.56
2022-11-07T10:17:08.352Z,61.43
2022-11-07T10:22:16.994Z,60.82
2022-11-07T10:27:14.524Z,60.72
2022-11-07T10:32:19.014Z,59.62
2022-11-07T10:37:16.072Z,59.15
2022-11-07T10:42:19.309Z,59.09
2022-11-07T10:47:18.786Z,59.04
2022-11-07T10:52:18.847Z,58.26
2022-11-07T10:57:18.692Z,56.92
2022-11-07T11:02:21.330Z,56.28
2022-11-07T11:07:21.831Z,56.17
2022-11-07T11:12:25.247Z,55.05
2022-11-07T11:17:25.888Z,55.35
2022-11-07T11:22:25.375Z,53.51
2022-11-07T11:27:25.963Z,52.31
2022-11-07T11:32:30.713Z,52.23
2022-11-07T11:37:28.185Z,52.27
2022-11-07T11:42:31.186Z,52.29
2022-11-07T11:47:35.615Z,52.17
2022-11-07T11:52:32.599Z,51.83
2022-11-07T11:57:39.324Z,50.94
2022-11-07T12:02:49.536Z,50.25
2022-11-07T12:07:55.623Z,50.00
2022-11-07T12:13:04.790Z,48.17
2022-11-07T12:18:11.834Z,48.42
2022-11-07T12:23:29.204Z,46.34
2022-11-07T12:28:43.766Z,46.78
2022-11-07T12:33:49.394Z,46.44
2022-11-07T12:39:09.569Z,48.44
2022-11-07T12:44:26.927Z,49.18
2022-11-07T12:49:58.089Z,49.10
2022-11-07T12:55:00.080Z,48.01
2022-11-07T13:00:02.306Z,48.54
2022-11-07T13:05:08.442Z,49.75
2022-11-07T13:10:15.249Z,50.34
2022-11-07T13:15:18.243Z,50.82
2022-11-07T13:20:30.203Z,51.37
2022-11-07T13:25:31.508Z,50.99
2022-11-07T13:30:35.439Z,51.23
2022-11-07T13:35:35.519Z,51.13
2022-11-07T13:40:38.269Z,51.10
2022-11-07T13:45:43.005Z,50.87
2022-11-07T13:50:47.995Z,50.02
2022-11-07T13:55:48.703Z,50.00
2022-11-07T14:01:01.770Z,50.16
2022-11-07T14:06:00.382Z,50.25
2022-11-07T14:10:58.674Z,50.11
2022-11-07T14:16:02.565Z,50.44
2022-11-07T14:21:20.958Z,50.81
2022-11-07T14:26:20.454Z,50.96
2022-11-07T14:31:28.467Z,51.18
2022-11-07T14:36:27.061Z,51.34
2022-11-07T14:41:26.318Z,51.71
2022-11-07T14:46:25.219Z,52.16
2022-11-07T14:51:26.142Z,52.44
2022-11-07T14:56:36.764Z,52.86
2022-11-07T15:01:35.071Z,52.97
2022-11-07T15:06:35.201Z,53.39
2022-11-07T15:11:36.447Z,53.75
2022-11-07T15:16:37.465Z,54.12
2022-11-07T15:21:37.412Z,54.33
2022-11-07T15:26:36.255Z,54.57
2022-11-07T15:31:34.212Z,55.11
2022-11-07T15:36:41.115Z,55.23
2022-11-07T15:42:02.395Z,55.42
2022-11-07T15:47:03.431Z,55.80
2022-11-07T15:52:03.007Z,56.08
2022-11-07T15:57:12.735Z,56.17
2022-11-07T16:02:16.702Z,56.28
2022-11-07T16:07:28.393Z,56.84
2022-11-07T16:12:28.881Z,57.08
2022-11-07T16:17:27.202Z,57.24
2022-11-07T16:22:24.267Z,57.50
2022-11-07T16:27:23.430Z,57.78
2022-11-07T16:32:21.388Z,58.18
2022-11-07T16:37:18.598Z,58.18
2022-11-07T16:42:16.779Z,58.48
2022-11-07T16:47:16.262Z,58.79
2022-11-07T16:52:15.509Z,59.01
2022-11-07T16:57:13.932Z,59.07
2022-11-07T17:02:21.103Z,59.28
2022-11-07T17:07:22.237Z,59.36
2022-11-07T17:12:22.567Z,59.38
2022-11-07T17:17:20.214Z,59.49
2022-11-07T17:22:25.196Z,59.81
2022-11-07T17:27:30.335Z,60.03
2022-11-07T17:32:39.990Z,59.94
2022-11-07T17:37:37.723Z,60.04
2022-11-07T17:42:44.608Z,60.23
2022-11-07T17:47:42.079Z,60.25
2022-11-07T17:52:39.711Z,60.61
2022-11-07T17:58:02.958Z,60.44
2022-11-07T18:03:00.456Z,60.56
2022-11-07T18:08:31.172Z,60.57
2022-11-07T18:13:42.363Z,60.84
2022-11-07T18:18:44.784Z,60.75
2022-11-07T18:23:42.965Z,60.94
2022-11-07T18:34:06.459Z,61.09
2022-11-07T18:39:11.846Z,61.07
2022-11-07T18:44:13.537Z,61.06
2022-11-07T18:49:13.803Z,60.91
2022-11-07T18:54:13.261Z,61.08
2022-11-07T18:59:11.672Z,61.11
2022-11-07T19:04:19.416Z,61.22
2022-11-07T19:09:19.622Z,61.38
2022-11-07T19:14:22.838Z,61.35
2022-11-07T19:19:20.057Z,61.58
2022-11-07T19:24:17.360Z,61.79
2022-11-07T19:29:16.152Z,61.95
2022-11-07T19:34:17.482Z,61.81
2022-11-07T19:39:14.790Z,61.90
2022-11-07T19:44:15.264Z,61.92
2022-11-07T19:49:12.447Z,61.94
2022-11-07T19:54:31.598Z,61.81
2022-11-07T19:59:28.841Z,61.59
2022-11-07T20:04:26.260Z,61.63
2022-11-07T20:09:24.511Z,61.46
2022-11-07T20:14:22.272Z,61.19
2022-11-07T20:19:22.389Z,60.93
2022-11-07T20:24:19.600Z,60.88
2022-11-07T20:29:18.113Z,60.65
2022-11-07T20:34:17.660Z,60.59
2022-11-07T20:39:15.612Z,60.52
2022-11-07T20:44:15.306Z,60.07
2022-11-07T20:49:17.995Z,60.04
2022-11-07T20:54:16.109Z,59.92
2022-11-07T20:59:16.443Z,59.82
2022-11-07T21:04:15.376Z,59.80
2022-11-07T21:09:12.862Z,59.96
2022-11-07T21:14:10.588Z,59.82
2022-11-07T21:19:08.913Z,59.81
2022-11-07T21:24:07.682Z,59.82
2022-11-07T21:29:07.166Z,59.94
2022-11-07T21:34:06.125Z,60.19
2022-11-07T21:39:03.832Z,60.36
2022-11-07T21:44:02.146Z,60.58
2022-11-07T21:48:59.536Z,60.80
2022-11-07T21:53:57.582Z,61.97
2022-11-07T21:58:57.474Z,62.98
2022-11-07T22:04:11.682Z,63.51
2022-11-07T22:09:14.665Z,63.88
2022-11-07T22:14:14.521Z,63.97
2022-11-07T22:19:12.954Z,63.68
2022-11-07T22:24:10.882Z,63.89
2022-11-07T22:29:07.744Z,63.66
2022-11-07T22:34:04.795Z,63.51
2022-11-07T22:39:02.646Z,63.61
2022-11-07T22:43:59.912Z,63.48
2022-11-07T22:48:58.277Z,63.20
2022-11-07T22:53:56.090Z,63.09
2022-11-07T22:58:54.026Z,63.24
2022-11-07T23:03:51.757Z,63.00
2022-11-07T23:08:49.337Z,62.91
2022-11-07T23:13:46.901Z,62.67
2022-11-07T23:18:44.954Z,62.70
2022-11-07T23:23:43.001Z,62.58
2022-11-07T23:28:40.757Z,62.42
2022-11-07T23:33:39.050Z,62.31
2022-11-07T23:38:37.083Z,62.15
2022-11-07T23:43:34.968Z,61.88
2022-11-07T23:48:50.321Z,61.77
2022-11-07T23:54:08.312Z,61.73
2022-11-07T23:59:24.073Z,61.63
